sensor_id;sensor_type;location;lat;lon;timestamp;temperature;humidity
24518;DHT22;12678;51.336;12.406;2022-10-16T00:00:15;16.60;99.90
24518;DHT22;12678;51.336;12.406;2022-10-16T00:02:41;16.50;99.90
24518;DHT22;12678;51.336;12.406;2022-10-16T00:05:06;16.50;99.90
24518;DHT22;12678;51.336;12.406;2022-10-16T00:07:32;16.50;99.90
24518;DHT22;12678;51.336;12.406;2022-10-16T00:09:57;16.50;99.90
24518;DHT22;12678;51.336;12.406;2022-10-16T00:12:23;16.50;99.90
24518;DHT22;12678;51.336;12.406;2022-10-16T00:14:49;16.50;99.90
24518;DHT22;12678;51.336;12.406;2022-10-16T00:17:14;16.40;99.90
24518;DHT22;12678;51.336;12.406;2022-10-16T00:19:39;16.40;99.90
24518;DHT22;12678;51.336;12.406;2022-10-16T00:22:05;16.50;99.90
24518;DHT22;12678;51.336;12.406;2022-10-16T00:24:30;16.50;99.90
24518;DHT22;12678;51.336;12.406;2022-10-16T00:26:56;16.40;99.90
24518;DHT22;12678;51.336;12.406;2022-10-16T00:29:21;16.40;99.90
24518;DHT22;12678;51.336;12.406;2022-10-16T00:31:50;16.40;99.90
24518;DHT22;12678;51.336;12.406;2022-10-16T00:34:15;16.50;99.90
24518;DHT22;12678;51.336;12.406;2022-10-16T00:36:41;16.50;99.90
24518;DHT22;12678;51.336;12.406;2022-10-16T00:39:06;16.60;99.90
24518;DHT22;12678;51.336;12.406;2022-10-16T00:41:32;16.60;99.90
24518;DHT22;12678;51.336;12.406;2022-10-16T00:43:59;16.60;99.90
24518;DHT22;12678;51.336;12.406;2022-10-16T00:46:26;16.70;99.90
24518;DHT22;12678;51.336;12.406;2022-10-16T00:54:09;16.80;99.90
24518;DHT22;12678;51.336;12.406;2022-10-16T00:56:36;16.80;99.90
24518;DHT22;12678;51.336;12.406;2022-10-16T00:59:03;16.80;99.90
24518;DHT22;12678;51.336;12.406;2022-10-16T01:01:30;16.80;99.90
24518;DHT22;12678;51.336;12.406;2022-10-16T01:03:55;16.80;99.90
24518;DHT22;12678;51.336;12.406;2022-10-16T01:06:22;16.80;99.90
24518;DHT22;12678;51.336;12.406;2022-10-16T01:09:01;16.80;99.90
24518;DHT22;12678;51.336;12.406;2022-10-16T01:11:44;16.70;99.90
24518;DHT22;12678;51.336;12.406;2022-10-16T01:17:03;16.60;99.90
24518;DHT22;12678;51.336;12.406;2022-10-16T01:22:32;16.60;99.90
24518;DHT22;12678;51.336;12.406;2022-10-16T01:24:59;16.60;99.90
24518;DHT22;12678;51.336;12.406;2022-10-16T01:27:28;16.60;99.90
24518;DHT22;12678;51.336;12.406;2022-10-16T01:38:12;16.60;99.90
24518;DHT22;12678;51.336;12.406;2022-10-16T01:40:13;16.60;99.90
24518;DHT22;12678;51.336;12.406;2022-10-16T01:42:42;16.60;99.90
24518;DHT22;12678;51.336;12.406;2022-10-16T01:45:10;16.50;99.90
24518;DHT22;12678;51.336;12.406;2022-10-16T01:47:38;16.50;99.90
24518;DHT22;12678;51.336;12.406;2022-10-16T01:50:04;16.50;99.90
24518;DHT22;12678;51.336;12.406;2022-10-16T01:52:32;16.50;99.90
24518;DHT22;12678;51.336;12.406;2022-10-16T01:54:59;16.50;99.90
24518;DHT22;12678;51.336;12.406;2022-10-16T01:57:26;16.50;99.90
24518;DHT22;12678;51.336;12.406;2022-10-16T01:59:52;16.40;99.90
24518;DHT22;12678;51.336;12.406;2022-10-16T02:02:19;16.40;99.90
24518;DHT22;12678;51.336;12.406;2022-10-16T02:04:49;16.30;99.90
24518;DHT22;12678;51.336;12.406;2022-10-16T02:07:18;16.30;99.90
24518;DHT22;12678;51.336;12.406;2022-10-16T02:09:43;16.20;99.90
24518;DHT22;12678;51.336;12.406;2022-10-16T02:12:10;16.20;99.90
24518;DHT22;12678;51.336;12.406;2022-10-16T02:14:38;16.20;99.90
24518;DHT22;12678;51.336;12.406;2022-10-16T02:17:10;16.20;99.90
24518;DHT22;12678;51.336;12.406;2022-10-16T02:19:35;16.20;99.90
24518;DHT22;12678;51.336;12.406;2022-10-16T02:22:02;16.20;99.90
24518;DHT22;12678;51.336;12.406;2022-10-16T02:29:42;16.30;99.90
24518;DHT22;12678;51.336;12.406;2022-10-16T02:32:13;16.20;99.90
24518;DHT22;12678;51.336;12.406;2022-10-16T02:34:41;16.30;99.90
24518;DHT22;12678;51.336;12.406;2022-10-16T02:37:06;16.20;99.90
24518;DHT22;12678;51.336;12.406;2022-10-16T02:39:33;16.20;99.90
24518;DHT22;12678;51.336;12.406;2022-10-16T02:41:59;16.20;99.90
24518;DHT22;12678;51.336;12.406;2022-10-16T02:44:24;16.20;99.90
24518;DHT22;12678;51.336;12.406;2022-10-16T02:46:50;16.20;99.90
24518;DHT22;12678;51.336;12.406;2022-10-16T02:49:16;16.20;99.90
24518;DHT22;12678;51.336;12.406;2022-10-16T02:51:41;16.20;99.90
24518;DHT22;12678;51.336;12.406;2022-10-16T02:54:07;16.20;99.90
24518;DHT22;12678;51.336;12.406;2022-10-16T02:56:32;16.10;99.90
24518;DHT22;12678;51.336;12.406;2022-10-16T02:58:58;16.10;99.90
24518;DHT22;12678;51.336;12.406;2022-10-16T03:01:24;16.10;99.90
24518;DHT22;12678;51.336;12.406;2022-10-16T03:03:49;16.10;99.90
24518;DHT22;12678;51.336;12.406;2022-10-16T03:06:15;16.10;99.90
24518;DHT22;12678;51.336;12.406;2022-10-16T03:08:40;16.10;99.90
24518;DHT22;12678;51.336;12.406;2022-10-16T03:11:06;16.00;99.90
24518;DHT22;12678;51.336;12.406;2022-10-16T03:13:31;16.00;99.90
24518;DHT22;12678;51.336;12.406;2022-10-16T03:15:57;16.00;99.90
24518;DHT22;12678;51.336;12.406;2022-10-16T03:18:22;16.00;99.90
24518;DHT22;12678;51.336;12.406;2022-10-16T03:20:48;16.10;99.90
24518;DHT22;12678;51.336;12.406;2022-10-16T03:23:13;16.10;99.90
24518;DHT22;12678;51.336;12.406;2022-10-16T03:25:39;16.00;99.90
24518;DHT22;12678;51.336;12.406;2022-10-16T03:28:04;16.00;99.90
24518;DHT22;12678;51.336;12.406;2022-10-16T03:30:30;16.10;99.90
24518;DHT22;12678;51.336;12.406;2022-10-16T03:32:55;16.10;99.90
24518;DHT22;12678;51.336;12.406;2022-10-16T03:35:21;16.10;99.90
24518;DHT22;12678;51.336;12.406;2022-10-16T03:37:47;16.10;99.90
24518;DHT22;12678;51.336;12.406;2022-10-16T03:40:12;16.10;99.90
24518;DHT22;12678;51.336;12.406;2022-10-16T03:42:38;16.10;99.90
24518;DHT22;12678;51.336;12.406;2022-10-16T03:45:04;16.10;99.90
24518;DHT22;12678;51.336;12.406;2022-10-16T03:47:29;16.10;99.90
24518;DHT22;12678;51.336;12.406;2022-10-16T03:49:55;16.00;99.90
24518;DHT22;12678;51.336;12.406;2022-10-16T03:52:21;16.00;99.90
24518;DHT22;12678;51.336;12.406;2022-10-16T03:54:47;16.00;99.90
24518;DHT22;12678;51.336;12.406;2022-10-16T03:57:12;16.00;99.90
24518;DHT22;12678;51.336;12.406;2022-10-16T03:59:38;16.00;99.90
24518;DHT22;12678;51.336;12.406;2022-10-16T04:02:03;16.00;99.90
24518;DHT22;12678;51.336;12.406;2022-10-16T04:04:29;16.00;99.90
24518;DHT22;12678;51.336;12.406;2022-10-16T04:06:54;16.00;99.90
24518;DHT22;12678;51.336;12.406;2022-10-16T04:09:20;16.00;99.90
24518;DHT22;12678;51.336;12.406;2022-10-16T04:11:46;16.00;99.90
24518;DHT22;12678;51.336;12.406;2022-10-16T04:14:11;16.00;99.90
24518;DHT22;12678;51.336;12.406;2022-10-16T04:16:37;16.10;99.90
24518;DHT22;12678;51.336;12.406;2022-10-16T04:19:02;16.00;99.90
24518;DHT22;12678;51.336;12.406;2022-10-16T04:21:28;16.00;99.90
24518;DHT22;12678;51.336;12.406;2022-10-16T04:23:53;16.10;99.90
24518;DHT22;12678;51.336;12.406;2022-10-16T04:26:18;16.00;99.90
24518;DHT22;12678;51.336;12.406;2022-10-16T04:28:44;16.00;99.90
24518;DHT22;12678;51.336;12.406;2022-10-16T04:31:09;16.00;99.90
24518;DHT22;12678;51.336;12.406;2022-10-16T04:33:35;16.00;99.90
24518;DHT22;12678;51.336;12.406;2022-10-16T04:36:01;16.00;99.90
24518;DHT22;12678;51.336;12.406;2022-10-16T04:38:27;16.00;99.90
24518;DHT22;12678;51.336;12.406;2022-10-16T04:40:53;15.90;99.90
24518;DHT22;12678;51.336;12.406;2022-10-16T04:43:19;15.80;99.90
24518;DHT22;12678;51.336;12.406;2022-10-16T04:45:44;15.80;99.90
24518;DHT22;12678;51.336;12.406;2022-10-16T04:48:10;15.80;99.90
24518;DHT22;12678;51.336;12.406;2022-10-16T04:50:35;15.80;99.90
24518;DHT22;12678;51.336;12.406;2022-10-16T04:53:01;15.80;99.90
24518;DHT22;12678;51.336;12.406;2022-10-16T04:55:26;15.80;99.90
24518;DHT22;12678;51.336;12.406;2022-10-16T04:57:52;15.80;99.90
24518;DHT22;12678;51.336;12.406;2022-10-16T05:00:17;15.80;99.90
24518;DHT22;12678;51.336;12.406;2022-10-16T05:02:43;15.80;99.90
24518;DHT22;12678;51.336;12.406;2022-10-16T05:05:08;15.80;99.90
24518;DHT22;12678;51.336;12.406;2022-10-16T05:07:34;15.70;99.90
24518;DHT22;12678;51.336;12.406;2022-10-16T05:09:59;15.70;99.90
24518;DHT22;12678;51.336;12.406;2022-10-16T05:12:25;15.70;99.90
24518;DHT22;12678;51.336;12.406;2022-10-16T05:14:50;15.70;99.90
24518;DHT22;12678;51.336;12.406;2022-10-16T05:17:16;15.80;99.90
24518;DHT22;12678;51.336;12.406;2022-10-16T05:19:41;15.80;99.90
24518;DHT22;12678;51.336;12.406;2022-10-16T05:22:07;15.70;99.90
24518;DHT22;12678;51.336;12.406;2022-10-16T05:24:32;15.80;99.90
24518;DHT22;12678;51.336;12.406;2022-10-16T05:26:58;15.80;99.90
24518;DHT22;12678;51.336;12.406;2022-10-16T05:29:24;15.80;99.90
24518;DHT22;12678;51.336;12.406;2022-10-16T05:31:50;15.70;99.90
24518;DHT22;12678;51.336;12.406;2022-10-16T05:34:15;15.70;99.90
24518;DHT22;12678;51.336;12.406;2022-10-16T05:36:41;15.70;99.90
24518;DHT22;12678;51.336;12.406;2022-10-16T05:39:06;15.70;99.90
24518;DHT22;12678;51.336;12.406;2022-10-16T05:41:32;15.70;99.90
24518;DHT22;12678;51.336;12.406;2022-10-16T05:43:57;15.70;99.90
24518;DHT22;12678;51.336;12.406;2022-10-16T05:46:23;15.70;99.90
24518;DHT22;12678;51.336;12.406;2022-10-16T05:48:51;15.70;99.90
24518;DHT22;12678;51.336;12.406;2022-10-16T05:51:16;15.70;99.90
24518;DHT22;12678;51.336;12.406;2022-10-16T05:53:42;15.70;99.90
24518;DHT22;12678;51.336;12.406;2022-10-16T05:56:09;15.80;99.90
24518;DHT22;12678;51.336;12.406;2022-10-16T05:58:35;15.80;99.90
24518;DHT22;12678;51.336;12.406;2022-10-16T06:01:05;15.80;99.90
24518;DHT22;12678;51.336;12.406;2022-10-16T06:03:32;15.80;99.90
24518;DHT22;12678;51.336;12.406;2022-10-16T06:05:58;15.80;99.90
24518;DHT22;12678;51.336;12.406;2022-10-16T06:08:23;15.80;99.90
24518;DHT22;12678;51.336;12.406;2022-10-16T06:10:57;15.90;99.90
24518;DHT22;12678;51.336;12.406;2022-10-16T06:13:25;16.00;99.90
24518;DHT22;12678;51.336;12.406;2022-10-16T06:15:50;16.00;99.90
24518;DHT22;12678;51.336;12.406;2022-10-16T06:18:16;16.00;99.90
24518;DHT22;12678;51.336;12.406;2022-10-16T06:20:41;16.10;99.90
24518;DHT22;12678;51.336;12.406;2022-10-16T06:23:07;16.10;99.90
24518;DHT22;12678;51.336;12.406;2022-10-16T06:25:32;16.20;99.90
24518;DHT22;12678;51.336;12.406;2022-10-16T06:27:58;16.20;99.90
24518;DHT22;12678;51.336;12.406;2022-10-16T06:30:23;16.30;99.90
24518;DHT22;12678;51.336;12.406;2022-10-16T06:32:49;16.30;99.90
24518;DHT22;12678;51.336;12.406;2022-10-16T06:35:14;16.40;99.90
24518;DHT22;12678;51.336;12.406;2022-10-16T06:37:39;16.40;99.90
24518;DHT22;12678;51.336;12.406;2022-10-16T06:40:05;16.40;99.90
24518;DHT22;12678;51.336;12.406;2022-10-16T06:42:31;16.40;99.90
24518;DHT22;12678;51.336;12.406;2022-10-16T06:44:56;16.40;99.90
24518;DHT22;12678;51.336;12.406;2022-10-16T06:47:22;16.50;99.90
24518;DHT22;12678;51.336;12.406;2022-10-16T06:49:47;16.60;99.90
24518;DHT22;12678;51.336;12.406;2022-10-16T06:52:12;16.60;99.90
24518;DHT22;12678;51.336;12.406;2022-10-16T06:54:38;16.60;99.90
24518;DHT22;12678;51.336;12.406;2022-10-16T06:57:03;16.60;99.90
24518;DHT22;12678;51.336;12.406;2022-10-16T06:59:29;16.60;99.90
24518;DHT22;12678;51.336;12.406;2022-10-16T07:01:54;16.60;99.90
24518;DHT22;12678;51.336;12.406;2022-10-16T07:04:20;16.70;99.90
24518;DHT22;12678;51.336;12.406;2022-10-16T07:06:45;16.70;99.90
24518;DHT22;12678;51.336;12.406;2022-10-16T07:09:11;16.70;99.90
24518;DHT22;12678;51.336;12.406;2022-10-16T07:11:37;16.70;99.90
24518;DHT22;12678;51.336;12.406;2022-10-16T07:14:03;16.70;99.90
24518;DHT22;12678;51.336;12.406;2022-10-16T07:16:30;16.90;99.90
24518;DHT22;12678;51.336;12.406;2022-10-16T07:18:58;16.90;99.90
24518;DHT22;12678;51.336;12.406;2022-10-16T07:21:25;16.90;99.90
24518;DHT22;12678;51.336;12.406;2022-10-16T07:23:58;16.80;99.90
24518;DHT22;12678;51.336;12.406;2022-10-16T07:26:24;16.90;99.90
24518;DHT22;12678;51.336;12.406;2022-10-16T07:28:49;16.90;99.90
24518;DHT22;12678;51.336;12.406;2022-10-16T07:31:15;16.90;99.90
24518;DHT22;12678;51.336;12.406;2022-10-16T07:33:42;17.00;99.90
24518;DHT22;12678;51.336;12.406;2022-10-16T07:36:09;17.10;99.90
24518;DHT22;12678;51.336;12.406;2022-10-16T07:43:27;17.20;99.90
24518;DHT22;12678;51.336;12.406;2022-10-16T07:45:52;17.30;99.90
24518;DHT22;12678;51.336;12.406;2022-10-16T07:48:18;17.30;99.90
24518;DHT22;12678;51.336;12.406;2022-10-16T07:50:44;17.40;99.90
24518;DHT22;12678;51.336;12.406;2022-10-16T07:53:10;17.50;99.90
24518;DHT22;12678;51.336;12.406;2022-10-16T08:00:27;17.60;99.90
24518;DHT22;12678;51.336;12.406;2022-10-16T08:22:20;18.10;99.90
24518;DHT22;12678;51.336;12.406;2022-10-16T08:24:46;18.80;99.90
24518;DHT22;12678;51.336;12.406;2022-10-16T08:27:11;18.80;99.90
24518;DHT22;12678;51.336;12.406;2022-10-16T08:29:36;19.00;99.90
24518;DHT22;12678;51.336;12.406;2022-10-16T08:32:03;19.00;99.90
24518;DHT22;12678;51.336;12.406;2022-10-16T08:34:29;19.00;99.90
24518;DHT22;12678;51.336;12.406;2022-10-16T08:36:54;19.00;99.90
24518;DHT22;12678;51.336;12.406;2022-10-16T08:39:20;19.00;99.90
24518;DHT22;12678;51.336;12.406;2022-10-16T08:42:04;19.00;99.90
24518;DHT22;12678;51.336;12.406;2022-10-16T08:44:44;19.10;99.90
24518;DHT22;12678;51.336;12.406;2022-10-16T08:49:43;19.30;99.90
24518;DHT22;12678;51.336;12.406;2022-10-16T08:52:13;19.30;99.90
24518;DHT22;12678;51.336;12.406;2022-10-16T08:54:41;19.40;99.90
24518;DHT22;12678;51.336;12.406;2022-10-16T08:57:09;19.40;99.90
24518;DHT22;12678;51.336;12.406;2022-10-16T08:59:34;19.50;99.90
24518;DHT22;12678;51.336;12.406;2022-10-16T09:02:00;19.60;99.90
24518;DHT22;12678;51.336;12.406;2022-10-16T09:07:13;19.70;99.90
24518;DHT22;12678;51.336;12.406;2022-10-16T09:09:54;19.80;99.90
24518;DHT22;12678;51.336;12.406;2022-10-16T09:12:26;19.90;99.90
24518;DHT22;12678;51.336;12.406;2022-10-16T09:15:00;19.90;99.90
24518;DHT22;12678;51.336;12.406;2022-10-16T09:17:33;20.00;99.90
24518;DHT22;12678;51.336;12.406;2022-10-16T09:20:23;20.10;99.90
24518;DHT22;12678;51.336;12.406;2022-10-16T09:22:53;20.20;99.90
24518;DHT22;12678;51.336;12.406;2022-10-16T09:25:20;20.20;99.90
24518;DHT22;12678;51.336;12.406;2022-10-16T09:27:47;20.20;99.90
24518;DHT22;12678;51.336;12.406;2022-10-16T09:30:14;20.30;99.90
24518;DHT22;12678;51.336;12.406;2022-10-16T09:32:40;20.30;99.90
24518;DHT22;12678;51.336;12.406;2022-10-16T09:35:10;20.20;99.90
24518;DHT22;12678;51.336;12.406;2022-10-16T09:37:40;20.30;99.90
24518;DHT22;12678;51.336;12.406;2022-10-16T09:40:11;20.30;99.90
24518;DHT22;12678;51.336;12.406;2022-10-16T09:42:37;20.30;99.90
24518;DHT22;12678;51.336;12.406;2022-10-16T09:45:03;20.40;99.90
24518;DHT22;12678;51.336;12.406;2022-10-16T09:47:29;20.50;99.90
24518;DHT22;12678;51.336;12.406;2022-10-16T09:49:56;20.60;99.90
24518;DHT22;12678;51.336;12.406;2022-10-16T09:52:24;20.70;99.90
24518;DHT22;12678;51.336;12.406;2022-10-16T09:55:31;20.60;99.90
24518;DHT22;12678;51.336;12.406;2022-10-16T09:57:48;20.50;99.90
24518;DHT22;12678;51.336;12.406;2022-10-16T10:00:15;20.40;99.90
24518;DHT22;12678;51.336;12.406;2022-10-16T10:02:41;20.40;99.90
24518;DHT22;12678;51.336;12.406;2022-10-16T10:05:17;20.30;99.90
24518;DHT22;12678;51.336;12.406;2022-10-16T10:07:43;20.30;99.90
24518;DHT22;12678;51.336;12.406;2022-10-16T10:10:20;20.30;99.90
24518;DHT22;12678;51.336;12.406;2022-10-16T10:12:46;20.30;99.90
24518;DHT22;12678;51.336;12.406;2022-10-16T10:15:12;20.50;99.90
24518;DHT22;12678;51.336;12.406;2022-10-16T10:17:49;20.70;99.90
24518;DHT22;12678;51.336;12.406;2022-10-16T10:20:21;20.70;99.90
24518;DHT22;12678;51.336;12.406;2022-10-16T10:22:47;20.80;99.90
24518;DHT22;12678;51.336;12.406;2022-10-16T10:35:40;20.60;99.90
24518;DHT22;12678;51.336;12.406;2022-10-16T10:43:22;20.50;99.90
24518;DHT22;12678;51.336;12.406;2022-10-16T10:45:52;20.40;99.90
24518;DHT22;12678;51.336;12.406;2022-10-16T10:50:56;20.30;99.90
24518;DHT22;12678;51.336;12.406;2022-10-16T11:01:22;20.20;99.90
24518;DHT22;12678;51.336;12.406;2022-10-16T11:06:33;20.40;99.90
24518;DHT22;12678;51.336;12.406;2022-10-16T11:09:02;20.40;99.90
24518;DHT22;12678;51.336;12.406;2022-10-16T11:11:34;20.40;99.90
24518;DHT22;12678;51.336;12.406;2022-10-16T11:14:09;20.40;99.90
24518;DHT22;12678;51.336;12.406;2022-10-16T11:16:38;20.40;99.90
24518;DHT22;12678;51.336;12.406;2022-10-16T11:21:50;20.40;99.90
24518;DHT22;12678;51.336;12.406;2022-10-16T11:24:20;20.50;99.90
24518;DHT22;12678;51.336;12.406;2022-10-16T11:26:47;20.50;99.90
24518;DHT22;12678;51.336;12.406;2022-10-16T11:29:16;20.60;99.90
24518;DHT22;12678;51.336;12.406;2022-10-16T11:31:50;20.60;99.90
24518;DHT22;12678;51.336;12.406;2022-10-16T11:36:51;20.60;99.90
24518;DHT22;12678;51.336;12.406;2022-10-16T11:44:18;20.70;99.90
24518;DHT22;12678;51.336;12.406;2022-10-16T11:46:49;20.70;99.90
24518;DHT22;12678;51.336;12.406;2022-10-16T11:49:20;20.70;99.90
24518;DHT22;12678;51.336;12.406;2022-10-16T11:54:22;20.80;99.90
24518;DHT22;12678;51.336;12.406;2022-10-16T11:56:50;20.80;99.90
24518;DHT22;12678;51.336;12.406;2022-10-16T11:59:20;20.80;99.90
24518;DHT22;12678;51.336;12.406;2022-10-16T12:01:54;20.90;99.90
24518;DHT22;12678;51.336;12.406;2022-10-16T12:04:33;20.90;99.90
24518;DHT22;12678;51.336;12.406;2022-10-16T12:09:27;20.80;99.90
24518;DHT22;12678;51.336;12.406;2022-10-16T12:11:54;20.80;99.90
24518;DHT22;12678;51.336;12.406;2022-10-16T12:14:38;20.80;99.90
24518;DHT22;12678;51.336;12.406;2022-10-16T12:19:45;20.80;99.90
24518;DHT22;12678;51.336;12.406;2022-10-16T12:22:21;20.80;99.90
24518;DHT22;12678;51.336;12.406;2022-10-16T12:24:50;20.80;99.90
24518;DHT22;12678;51.336;12.406;2022-10-16T12:27:34;20.80;99.90
24518;DHT22;12678;51.336;12.406;2022-10-16T12:30:01;20.80;99.90
24518;DHT22;12678;51.336;12.406;2022-10-16T12:32:29;20.70;99.90
24518;DHT22;12678;51.336;12.406;2022-10-16T12:34:55;20.70;99.90
24518;DHT22;12678;51.336;12.406;2022-10-16T12:37:24;20.70;99.90
24518;DHT22;12678;51.336;12.406;2022-10-16T12:39:51;20.70;99.90
24518;DHT22;12678;51.336;12.406;2022-10-16T12:44:52;20.60;99.90
24518;DHT22;12678;51.336;12.406;2022-10-16T12:47:22;20.70;99.90
24518;DHT22;12678;51.336;12.406;2022-10-16T12:49:49;20.70;99.90
24518;DHT22;12678;51.336;12.406;2022-10-16T12:55:16;20.60;99.90
24518;DHT22;12678;51.336;12.406;2022-10-16T13:05:32;20.40;99.90
24518;DHT22;12678;51.336;12.406;2022-10-16T13:11:04;20.40;99.90
24518;DHT22;12678;51.336;12.406;2022-10-16T13:28:40;20.30;99.90
24518;DHT22;12678;51.336;12.406;2022-10-16T13:31:10;20.20;99.90
24518;DHT22;12678;51.336;12.406;2022-10-16T13:33:39;20.20;99.90
24518;DHT22;12678;51.336;12.406;2022-10-16T13:36:06;20.20;99.90
24518;DHT22;12678;51.336;12.406;2022-10-16T13:38:32;20.20;99.90
24518;DHT22;12678;51.336;12.406;2022-10-16T13:41:00;20.20;99.90
24518;DHT22;12678;51.336;12.406;2022-10-16T13:43:27;20.10;99.90
24518;DHT22;12678;51.336;12.406;2022-10-16T13:45:55;20.10;99.90
24518;DHT22;12678;51.336;12.406;2022-10-16T13:48:21;20.10;99.90
24518;DHT22;12678;51.336;12.406;2022-10-16T13:50:57;20.10;99.90
24518;DHT22;12678;51.336;12.406;2022-10-16T13:53:23;20.00;99.90
24518;DHT22;12678;51.336;12.406;2022-10-16T13:55:48;20.00;99.90
24518;DHT22;12678;51.336;12.406;2022-10-16T13:58:14;20.00;99.90
24518;DHT22;12678;51.336;12.406;2022-10-16T14:00:40;19.90;99.90
24518;DHT22;12678;51.336;12.406;2022-10-16T14:03:11;19.90;99.90
24518;DHT22;12678;51.336;12.406;2022-10-16T14:05:42;19.80;99.90
24518;DHT22;12678;51.336;12.406;2022-10-16T14:08:12;19.80;99.90
24518;DHT22;12678;51.336;12.406;2022-10-16T14:10:37;19.70;99.90
24518;DHT22;12678;51.336;12.406;2022-10-16T14:13:04;19.70;99.90
24518;DHT22;12678;51.336;12.406;2022-10-16T14:15:30;19.70;99.90
24518;DHT22;12678;51.336;12.406;2022-10-16T14:17:56;19.60;99.90
24518;DHT22;12678;51.336;12.406;2022-10-16T14:20:24;19.50;99.90
24518;DHT22;12678;51.336;12.406;2022-10-16T14:22:57;19.50;99.90
24518;DHT22;12678;51.336;12.406;2022-10-16T14:25:25;19.50;99.90
24518;DHT22;12678;51.336;12.406;2022-10-16T14:28:01;19.50;99.90
24518;DHT22;12678;51.336;12.406;2022-10-16T14:30:27;19.50;99.90
24518;DHT22;12678;51.336;12.406;2022-10-16T14:33:00;19.60;99.90
24518;DHT22;12678;51.336;12.406;2022-10-16T14:35:33;19.60;99.90
24518;DHT22;12678;51.336;12.406;2022-10-16T14:37:59;19.60;99.90
24518;DHT22;12678;51.336;12.406;2022-10-16T14:40:27;19.60;99.90
24518;DHT22;12678;51.336;12.406;2022-10-16T14:42:53;19.60;99.90
24518;DHT22;12678;51.336;12.406;2022-10-16T14:45:19;19.50;99.90
24518;DHT22;12678;51.336;12.406;2022-10-16T14:48:05;19.50;99.90
24518;DHT22;12678;51.336;12.406;2022-10-16T14:50:31;19.50;99.90
24518;DHT22;12678;51.336;12.406;2022-10-16T14:52:56;19.50;99.90
24518;DHT22;12678;51.336;12.406;2022-10-16T14:55:23;19.50;99.90
24518;DHT22;12678;51.336;12.406;2022-10-16T14:57:48;19.50;99.90
24518;DHT22;12678;51.336;12.406;2022-10-16T15:00:16;19.40;99.90
24518;DHT22;12678;51.336;12.406;2022-10-16T15:07:34;19.40;99.90
24518;DHT22;12678;51.336;12.406;2022-10-16T15:09:59;19.20;99.90
24518;DHT22;12678;51.336;12.406;2022-10-16T15:12:25;19.20;99.90
24518;DHT22;12678;51.336;12.406;2022-10-16T15:14:50;19.20;99.90
24518;DHT22;12678;51.336;12.406;2022-10-16T15:17:15;19.10;99.90
24518;DHT22;12678;51.336;12.406;2022-10-16T15:19:41;19.10;99.90
24518;DHT22;12678;51.336;12.406;2022-10-16T15:22:08;19.10;99.90
24518;DHT22;12678;51.336;12.406;2022-10-16T15:24:34;19.10;99.90
24518;DHT22;12678;51.336;12.406;2022-10-16T15:26:59;19.10;99.90
24518;DHT22;12678;51.336;12.406;2022-10-16T15:29:25;19.00;99.90
24518;DHT22;12678;51.336;12.406;2022-10-16T15:31:50;19.10;99.90
24518;DHT22;12678;51.336;12.406;2022-10-16T15:34:16;19.00;99.90
24518;DHT22;12678;51.336;12.406;2022-10-16T15:36:43;18.90;99.90
24518;DHT22;12678;51.336;12.406;2022-10-16T15:39:12;19.00;99.90
24518;DHT22;12678;51.336;12.406;2022-10-16T15:41:38;18.90;99.90
24518;DHT22;12678;51.336;12.406;2022-10-16T15:44:04;18.90;99.90
24518;DHT22;12678;51.336;12.406;2022-10-16T15:46:29;18.90;99.90
24518;DHT22;12678;51.336;12.406;2022-10-16T15:48:57;18.90;99.90
24518;DHT22;12678;51.336;12.406;2022-10-16T15:51:24;19.00;99.90
24518;DHT22;12678;51.336;12.406;2022-10-16T15:53:50;19.00;99.90
24518;DHT22;12678;51.336;12.406;2022-10-16T15:56:16;19.00;99.90
24518;DHT22;12678;51.336;12.406;2022-10-16T16:01:13;19.00;99.90
24518;DHT22;12678;51.336;12.406;2022-10-16T16:03:39;19.00;99.90
24518;DHT22;12678;51.336;12.406;2022-10-16T16:06:08;19.00;99.90
24518;DHT22;12678;51.336;12.406;2022-10-16T16:08:34;19.00;99.90
24518;DHT22;12678;51.336;12.406;2022-10-16T16:11:01;18.90;99.90
24518;DHT22;12678;51.336;12.406;2022-10-16T16:13:27;19.00;99.90
24518;DHT22;12678;51.336;12.406;2022-10-16T16:15:53;18.90;99.90
24518;DHT22;12678;51.336;12.406;2022-10-16T16:18:18;18.90;99.90
24518;DHT22;12678;51.336;12.406;2022-10-16T16:20:44;18.90;99.90
24518;DHT22;12678;51.336;12.406;2022-10-16T16:23:09;18.90;99.90
24518;DHT22;12678;51.336;12.406;2022-10-16T16:25:35;18.80;99.90
24518;DHT22;12678;51.336;12.406;2022-10-16T16:28:01;18.80;99.90
24518;DHT22;12678;51.336;12.406;2022-10-16T16:30:26;18.80;99.90
24518;DHT22;12678;51.336;12.406;2022-10-16T16:32:52;18.80;99.90
24518;DHT22;12678;51.336;12.406;2022-10-16T16:35:17;18.80;99.90
24518;DHT22;12678;51.336;12.406;2022-10-16T16:37:43;18.80;99.90
24518;DHT22;12678;51.336;12.406;2022-10-16T16:40:08;18.80;99.90
24518;DHT22;12678;51.336;12.406;2022-10-16T16:42:34;18.70;99.90
24518;DHT22;12678;51.336;12.406;2022-10-16T16:45:00;18.70;99.90
24518;DHT22;12678;51.336;12.406;2022-10-16T16:47:25;18.70;99.90
24518;DHT22;12678;51.336;12.406;2022-10-16T16:49:51;18.70;99.90
24518;DHT22;12678;51.336;12.406;2022-10-16T16:52:16;18.70;99.90
24518;DHT22;12678;51.336;12.406;2022-10-16T16:54:42;18.60;99.90
24518;DHT22;12678;51.336;12.406;2022-10-16T16:57:09;18.60;99.90
24518;DHT22;12678;51.336;12.406;2022-10-16T16:59:34;18.50;99.90
24518;DHT22;12678;51.336;12.406;2022-10-16T17:02:00;18.50;99.90
24518;DHT22;12678;51.336;12.406;2022-10-16T17:04:25;18.40;99.90
24518;DHT22;12678;51.336;12.406;2022-10-16T17:06:52;18.40;99.90
24518;DHT22;12678;51.336;12.406;2022-10-16T17:09:19;18.40;99.90
24518;DHT22;12678;51.336;12.406;2022-10-16T17:11:45;18.30;99.90
24518;DHT22;12678;51.336;12.406;2022-10-16T17:14:11;18.30;99.90
24518;DHT22;12678;51.336;12.406;2022-10-16T17:16:38;18.30;99.90
24518;DHT22;12678;51.336;12.406;2022-10-16T17:19:05;18.40;99.90
24518;DHT22;12678;51.336;12.406;2022-10-16T17:21:31;18.40;99.90
24518;DHT22;12678;51.336;12.406;2022-10-16T17:23:57;18.40;99.90
24518;DHT22;12678;51.336;12.406;2022-10-16T17:26:23;18.40;99.90
24518;DHT22;12678;51.336;12.406;2022-10-16T17:28:51;18.40;99.90
24518;DHT22;12678;51.336;12.406;2022-10-16T17:31:18;18.40;99.90
24518;DHT22;12678;51.336;12.406;2022-10-16T17:33:44;18.40;99.90
24518;DHT22;12678;51.336;12.406;2022-10-16T17:36:10;18.50;99.90
24518;DHT22;12678;51.336;12.406;2022-10-16T17:38:38;18.50;99.90